sensor_id;sensor_type;location;lat;lon;timestamp;pressure;altitude;pressure_sealevel;temperature;humidity
36514;BME280;66331;46.796;9.824;2022-12-29T18:57:44;84398.02;;;-0.78;36.97
36514;BME280;66331;46.796;9.824;2022-12-29T19:00:13;84398.80;;;-0.20;36.59
36514;BME280;66331;46.796;9.824;2022-12-29T19:02:41;84399.32;;;-0.02;36.97
36514;BME280;66331;46.796;9.824;2022-12-29T19:05:18;84401.47;;;-0.51;38.22
36514;BME280;66331;46.796;9.824;2022-12-29T19:07:45;84405.85;;;-0.61;38.85
36514;BME280;66331;46.796;9.824;2022-12-29T19:10:12;84398.95;;;-0.22;38.24
36514;BME280;66331;46.796;9.824;2022-12-29T19:12:40;84392.20;;;0.50;37.84
36514;BME280;66331;46.796;9.824;2022-12-29T19:15:13;84398.84;;;-1.87;41.92
36514;BME280;66331;46.796;9.824;2022-12-29T19:17:44;84391.88;;;-0.27;38.97
36514;BME280;66331;46.796;9.824;2022-12-29T19:20:24;84395.98;;;-0.48;38.86
36514;BME280;66331;46.796;9.824;2022-12-29T19:22:52;84394.45;;;-0.17;38.96
36514;BME280;66331;46.796;9.824;2022-12-29T19:25:19;84389.68;;;-0.65;39.48
36514;BME280;66331;46.796;9.824;2022-12-29T19:27:45;84387.99;;;0.56;38.15
36514;BME280;66331;46.796;9.824;2022-12-29T19:30:13;84388.20;;;-0.02;38.40
36514;BME280;66331;46.796;9.824;2022-12-29T19:32:40;84389.39;;;-2.06;42.83
36514;BME280;66331;46.796;9.824;2022-12-29T19:35:09;84384.54;;;-1.21;41.93
36514;BME280;66331;46.796;9.824;2022-12-29T19:37:36;84386.94;;;-1.00;40.73
36514;BME280;66331;46.796;9.824;2022-12-29T19:40:04;84384.60;;;-0.59;39.25
36514;BME280;66331;46.796;9.824;2022-12-29T19:42:31;84380.84;;;-0.27;38.05
36514;BME280;66331;46.796;9.824;2022-12-29T19:44:58;84380.66;;;-0.30;38.29
36514;BME280;66331;46.796;9.824;2022-12-29T19:47:25;84384.63;;;-1.62;42.12
36514;BME280;66331;46.796;9.824;2022-12-29T19:49:53;84380.78;;;-0.66;40.19
36514;BME280;66331;46.796;9.824;2022-12-29T19:52:19;84378.44;;;-0.31;39.15
36514;BME280;66331;46.796;9.824;2022-12-29T19:54:46;84377.61;;;-0.26;38.44
36514;BME280;66331;46.796;9.824;2022-12-29T19:57:13;84372.03;;;0.39;37.25
36514;BME280;66331;46.796;9.824;2022-12-29T19:59:40;84368.02;;;0.21;37.76
36514;BME280;66331;46.796;9.824;2022-12-29T20:02:16;84371.98;;;0.63;37.11
36514;BME280;66331;46.796;9.824;2022-12-29T20:04:44;84371.40;;;0.90;37.23
36514;BME280;66331;46.796;9.824;2022-12-29T20:07:10;84369.37;;;-0.20;38.63
36514;BME280;66331;46.796;9.824;2022-12-29T20:09:37;84367.93;;;-0.24;39.54
36514;BME280;66331;46.796;9.824;2022-12-29T20:12:05;84369.34;;;0.58;37.99
36514;BME280;66331;46.796;9.824;2022-12-29T20:14:32;84367.12;;;0.39;38.23
36514;BME280;66331;46.796;9.824;2022-12-29T20:16:59;84369.63;;;-0.63;40.29
36514;BME280;66331;46.796;9.824;2022-12-29T20:19:26;84368.35;;;-0.67;40.57
36514;BME280;66331;46.796;9.824;2022-12-29T20:21:54;84364.94;;;-0.84;39.62
36514;BME280;66331;46.796;9.824;2022-12-29T20:24:21;84361.31;;;-0.79;39.56
36514;BME280;66331;46.796;9.824;2022-12-29T20:26:48;84357.37;;;0.35;37.85
36514;BME280;66331;46.796;9.824;2022-12-29T20:29:14;84357.93;;;-0.29;39.37
36514;BME280;66331;46.796;9.824;2022-12-29T20:31:41;84353.21;;;-0.32;39.70
36514;BME280;66331;46.796;9.824;2022-12-29T20:34:08;84352.69;;;-0.50;39.60
36514;BME280;66331;46.796;9.824;2022-12-29T20:36:38;84357.29;;;-0.56;39.85
36514;BME280;66331;46.796;9.824;2022-12-29T20:39:08;84362.83;;;-0.52;40.18
36514;BME280;66331;46.796;9.824;2022-12-29T20:41:36;84360.91;;;-0.76;40.09
36514;BME280;66331;46.796;9.824;2022-12-29T20:44:03;84362.88;;;0.06;38.96
36514;BME280;66331;46.796;9.824;2022-12-29T20:46:29;84363.30;;;-0.22;38.76
36514;BME280;66331;46.796;9.824;2022-12-29T20:48:56;84363.02;;;0.44;37.76
36514;BME280;66331;46.796;9.824;2022-12-29T20:51:24;84368.03;;;0.66;37.20
36514;BME280;66331;46.796;9.824;2022-12-29T20:53:52;84366.88;;;-0.15;38.87
36514;BME280;66331;46.796;9.824;2022-12-29T20:56:23;84368.55;;;-0.47;39.62
36514;BME280;66331;46.796;9.824;2022-12-29T20:58:50;84363.65;;;0.09;37.96
36514;BME280;66331;46.796;9.824;2022-12-29T21:01:20;84365.59;;;-0.29;39.53
36514;BME280;66331;46.796;9.824;2022-12-29T21:03:48;84363.57;;;0.52;37.85
36514;BME280;66331;46.796;9.824;2022-12-29T21:06:16;84364.23;;;-0.98;41.38
36514;BME280;66331;46.796;9.824;2022-12-29T21:08:46;84362.40;;;0.25;38.41
36514;BME280;66331;46.796;9.824;2022-12-29T21:11:59;84366.03;;;-0.52;39.43
36514;BME280;66331;46.796;9.824;2022-12-29T21:14:39;84366.89;;;-0.82;40.77
36514;BME280;66331;46.796;9.824;2022-12-29T21:17:14;84365.56;;;0.14;38.72
36514;BME280;66331;46.796;9.824;2022-12-29T21:19:50;84365.21;;;0.23;38.67
36514;BME280;66331;46.796;9.824;2022-12-29T21:22:34;84362.39;;;0.16;38.07
36514;BME280;66331;46.796;9.824;2022-12-29T21:25:05;84357.18;;;0.03;38.55
36514;BME280;66331;46.796;9.824;2022-12-29T21:27:40;84359.37;;;0.44;38.58
36514;BME280;66331;46.796;9.824;2022-12-29T21:30:08;84360.41;;;0.52;38.05
36514;BME280;66331;46.796;9.824;2022-12-29T21:32:35;84358.29;;;-0.06;38.76
36514;BME280;66331;46.796;9.824;2022-12-29T21:35:02;84356.17;;;-0.17;39.11
36514;BME280;66331;46.796;9.824;2022-12-29T21:37:30;84355.23;;;0.14;38.48
36514;BME280;66331;46.796;9.824;2022-12-29T21:39:57;84356.16;;;0.10;38.51
36514;BME280;66331;46.796;9.824;2022-12-29T21:42:24;84356.81;;;-0.16;38.65
36514;BME280;66331;46.796;9.824;2022-12-29T21:44:51;84363.30;;;-0.73;39.93
36514;BME280;66331;46.796;9.824;2022-12-29T21:47:18;84364.42;;;-0.63;40.40
36514;BME280;66331;46.796;9.824;2022-12-29T21:49:44;84364.19;;;-0.95;40.96
36514;BME280;66331;46.796;9.824;2022-12-29T21:52:11;84364.97;;;-0.42;39.79
36514;BME280;66331;46.796;9.824;2022-12-29T21:54:38;84369.57;;;0.00;39.42
36514;BME280;66331;46.796;9.824;2022-12-29T21:57:06;84368.06;;;0.32;39.02
36514;BME280;66331;46.796;9.824;2022-12-29T21:59:33;84367.95;;;0.07;38.78
36514;BME280;66331;46.796;9.824;2022-12-29T22:02:02;84367.76;;;0.27;38.52
36514;BME280;66331;46.796;9.824;2022-12-29T22:04:29;84363.15;;;-0.49;40.28
36514;BME280;66331;46.796;9.824;2022-12-29T22:06:56;84364.69;;;-0.77;41.24
36514;BME280;66331;46.796;9.824;2022-12-29T22:09:23;84371.55;;;-1.25;42.43
36514;BME280;66331;46.796;9.824;2022-12-29T22:11:49;84370.54;;;-1.47;43.22
36514;BME280;66331;46.796;9.824;2022-12-29T22:14:17;84365.02;;;-1.01;42.58
36514;BME280;66331;46.796;9.824;2022-12-29T22:16:44;84363.37;;;-0.62;41.81
36514;BME280;66331;46.796;9.824;2022-12-29T22:19:11;84359.71;;;-0.30;40.32
36514;BME280;66331;46.796;9.824;2022-12-29T22:21:38;84360.76;;;0.30;38.51
36514;BME280;66331;46.796;9.824;2022-12-29T22:24:05;84361.90;;;0.29;38.00
36514;BME280;66331;46.796;9.824;2022-12-29T22:26:32;84363.67;;;0.58;38.27
36514;BME280;66331;46.796;9.824;2022-12-29T22:28:59;84365.94;;;-0.63;40.89
36514;BME280;66331;46.796;9.824;2022-12-29T22:31:28;84369.46;;;-0.81;42.75
36514;BME280;66331;46.796;9.824;2022-12-29T22:33:57;84366.77;;;-0.05;39.81
36514;BME280;66331;46.796;9.824;2022-12-29T22:36:25;84368.28;;;-0.21;40.59
36514;BME280;66331;46.796;9.824;2022-12-29T22:38:53;84372.17;;;-1.44;42.99
36514;BME280;66331;46.796;9.824;2022-12-29T22:41:20;84367.91;;;-1.04;41.16
36514;BME280;66331;46.796;9.824;2022-12-29T22:43:48;84371.31;;;0.32;39.69
36514;BME280;66331;46.796;9.824;2022-12-29T22:46:14;84373.43;;;-0.77;41.42
36514;BME280;66331;46.796;9.824;2022-12-29T22:48:41;84375.41;;;0.50;39.98
36514;BME280;66331;46.796;9.824;2022-12-29T22:51:09;84373.83;;;0.49;39.25
36514;BME280;66331;46.796;9.824;2022-12-29T22:53:36;84370.03;;;-0.15;40.02
36514;BME280;66331;46.796;9.824;2022-12-29T22:56:06;84367.05;;;0.41;39.43
36514;BME280;66331;46.796;9.824;2022-12-29T22:58:33;84367.44;;;1.10;38.89
36514;BME280;66331;46.796;9.824;2022-12-29T23:01:00;84368.66;;;0.39;39.52
36514;BME280;66331;46.796;9.824;2022-12-29T23:03:28;84368.04;;;-1.09;42.93
36514;BME280;66331;46.796;9.824;2022-12-29T23:05:56;84363.45;;;-0.88;43.31
36514;BME280;66331;46.796;9.824;2022-12-29T23:08:24;84359.36;;;-0.18;41.55
36514;BME280;66331;46.796;9.824;2022-12-29T23:10:52;84358.63;;;-0.17;41.28
36514;BME280;66331;46.796;9.824;2022-12-29T23:13:19;84354.89;;;-0.44;41.62
36514;BME280;66331;46.796;9.824;2022-12-29T23:15:46;84351.44;;;-0.54;41.36
36514;BME280;66331;46.796;9.824;2022-12-29T23:18:14;84349.55;;;-0.27;41.16
36514;BME280;66331;46.796;9.824;2022-12-29T23:20:42;84348.87;;;-0.03;40.87
36514;BME280;66331;46.796;9.824;2022-12-29T23:23:09;84343.42;;;-0.39;41.09
36514;BME280;66331;46.796;9.824;2022-12-29T23:25:37;84333.97;;;-0.77;41.24
36514;BME280;66331;46.796;9.824;2022-12-29T23:28:06;84331.88;;;0.19;40.34
36514;BME280;66331;46.796;9.824;2022-12-29T23:30:33;84328.75;;;0.44;40.24
36514;BME280;66331;46.796;9.824;2022-12-29T23:33:01;84326.59;;;-0.53;42.00
36514;BME280;66331;46.796;9.824;2022-12-29T23:35:27;84319.98;;;0.58;40.22
36514;BME280;66331;46.796;9.824;2022-12-29T23:37:54;84320.31;;;0.30;40.93
36514;BME280;66331;46.796;9.824;2022-12-29T23:40:21;84322.69;;;-0.53;42.32
36514;BME280;66331;46.796;9.824;2022-12-29T23:42:49;84324.23;;;-0.23;41.40
36514;BME280;66331;46.796;9.824;2022-12-29T23:45:16;84322.43;;;0.28;41.14
36514;BME280;66331;46.796;9.824;2022-12-29T23:47:43;84325.84;;;-0.04;40.77
36514;BME280;66331;46.796;9.824;2022-12-29T23:50:10;84328.29;;;-0.65;41.59
36514;BME280;66331;46.796;9.824;2022-12-29T23:52:36;84343.17;;;-1.86;44.70
36514;BME280;66331;46.796;9.824;2022-12-29T23:55:04;84337.53;;;-0.65;42.34
36514;BME280;66331;46.796;9.824;2022-12-29T23:57:31;84335.92;;;-1.19;42.93
36514;BME280;66331;46.796;9.824;2022-12-29T23:59:58;84333.73;;;0.11;40.55
